createdAt,value
2022-12-03T00:01:38.873Z,100.00
2022-12-03T00:04:09.021Z,100.00
2022-12-03T00:06:36.634Z,100.00
2022-12-03T00:09:05.896Z,100.00
2022-12-03T00:11:35.579Z,100.00
2022-12-03T00:14:03.089Z,100.00
2022-12-03T00:16:30.674Z,100.00
2022-12-03T00:18:58.228Z,100.00
2022-12-03T00:21:25.748Z,100.00
2022-12-03T00:23:53.347Z,100.00
2022-12-03T00:26:20.876Z,100.00
2022-12-03T00:28:48.593Z,100.00
2022-12-03T00:31:21.417Z,100.00
2022-12-03T00:33:49.050Z,100.00
2022-12-03T00:36:16.576Z,100.00
2022-12-03T00:38:44.168Z,100.00
2022-12-03T00:41:12.002Z,100.00
2022-12-03T00:43:39.702Z,100.00
2022-12-03T00:46:11.100Z,100.00
2022-12-03T00:48:38.657Z,100.00
2022-12-03T00:51:06.277Z,100.00
2022-12-03T00:53:33.818Z,100.00
2022-12-03T00:56:02.202Z,100.00
2022-12-03T00:58:29.768Z,100.00
2022-12-03T01:00:57.269Z,100.00
2022-12-03T01:03:24.795Z,100.00
2022-12-03T01:05:52.326Z,100.00
2022-12-03T01:08:21.966Z,100.00
2022-12-03T01:10:49.556Z,100.00
2022-12-03T01:13:17.112Z,100.00
2022-12-03T01:15:44.661Z,100.00
2022-12-03T01:18:14.636Z,100.00
2022-12-03T01:20:42.274Z,100.00
2022-12-03T01:23:12.535Z,100.00
2022-12-03T01:25:41.260Z,100.00
2022-12-03T01:28:09.009Z,100.00
2022-12-03T01:30:59.246Z,100.00
2022-12-03T01:33:26.346Z,100.00
2022-12-03T01:35:53.886Z,100.00
2022-12-03T01:38:21.599Z,100.00
2022-12-03T01:40:52.080Z,100.00
2022-12-03T01:43:19.597Z,100.00
2022-12-03T01:45:49.589Z,100.00
2022-12-03T01:48:17.837Z,100.00
2022-12-03T01:50:46.076Z,100.00
2022-12-03T01:53:18.301Z,100.00
2022-12-03T01:55:49.058Z,100.00
2022-12-03T01:58:22.289Z,100.00
2022-12-03T02:00:49.866Z,100.00
2022-12-03T02:03:26.531Z,100.00
2022-12-03T02:05:54.607Z,100.00
2022-12-03T02:08:34.937Z,100.00
2022-12-03T02:11:10.352Z,100.00
2022-12-03T02:13:38.140Z,100.00
2022-12-03T02:16:06.993Z,100.00
2022-12-03T02:18:37.569Z,100.00
2022-12-03T02:21:19.438Z,100.00
2022-12-03T02:24:07.718Z,100.00
2022-12-03T02:26:40.075Z,100.00
2022-12-03T02:29:07.750Z,100.00
2022-12-03T02:31:35.511Z,100.00
2022-12-03T02:34:09.984Z,100.00
2022-12-03T02:36:39.127Z,100.00
2022-12-03T02:39:09.104Z,100.00
2022-12-03T02:41:53.901Z,100.00
2022-12-03T02:44:23.787Z,100.00
2022-12-03T02:46:51.378Z,100.00
2022-12-03T02:49:19.045Z,100.00
2022-12-03T02:51:46.801Z,100.00
2022-12-03T02:54:14.448Z,100.00
2022-12-03T02:56:42.043Z,100.00
2022-12-03T02:59:09.901Z,100.00
2022-12-03T03:01:37.786Z,100.00
2022-12-03T03:04:06.860Z,100.00
2022-12-03T03:06:34.658Z,100.00
2022-12-03T03:09:02.248Z,100.00
2022-12-03T03:11:31.370Z,100.00
2022-12-03T03:13:58.997Z,100.00
2022-12-03T03:16:26.606Z,100.00
2022-12-03T03:18:54.324Z,100.00
2022-12-03T03:21:22.111Z,100.00
2022-12-03T03:23:49.689Z,100.00
2022-12-03T03:26:17.384Z,100.00
2022-12-03T03:28:49.156Z,100.00
2022-12-03T03:31:23.435Z,100.00
2022-12-03T03:33:52.614Z,100.00
2022-12-03T03:36:21.268Z,100.00
2022-12-03T03:38:49.103Z,100.00
2022-12-03T03:41:18.722Z,100.00
2022-12-03T03:43:48.776Z,100.00
2022-12-03T03:46:20.186Z,100.00
2022-12-03T03:48:49.610Z,100.00
2022-12-03T03:51:20.604Z,100.00
2022-12-03T03:53:50.970Z,100.00
2022-12-03T03:56:23.399Z,100.00
2022-12-03T03:58:50.926Z,100.00
2022-12-03T04:01:19.865Z,100.00
2022-12-03T04:03:47.565Z,100.00
2022-12-03T04:06:17.636Z,100.00
2022-12-03T04:08:45.179Z,100.00
2022-12-03T04:11:30.332Z,100.00
2022-12-03T04:14:00.223Z,100.00
2022-12-03T04:16:29.047Z,100.00
2022-12-03T04:18:59.438Z,100.00
2022-12-03T04:21:44.774Z,100.00
2022-12-03T04:24:12.881Z,100.00
2022-12-03T04:26:58.076Z,100.00
2022-12-03T04:29:25.589Z,100.00
2022-12-03T04:32:10.656Z,100.00
2022-12-03T04:34:55.799Z,100.00
2022-12-03T04:37:25.872Z,100.00
2022-12-03T04:39:53.447Z,100.00
2022-12-03T04:42:20.987Z,100.00
2022-12-03T04:44:48.693Z,100.00
2022-12-03T04:47:21.881Z,100.00
2022-12-03T04:49:51.573Z,100.00
2022-12-03T04:52:20.901Z,100.00
2022-12-03T04:54:48.551Z,100.00
2022-12-03T04:57:16.053Z,100.00
2022-12-03T04:59:44.605Z,100.00
2022-12-03T05:02:12.171Z,100.00
2022-12-03T05:04:39.704Z,100.00
2022-12-03T05:07:10.643Z,100.00
2022-12-03T05:09:40.773Z,100.00
2022-12-03T05:12:13.132Z,100.00
2022-12-03T05:14:40.697Z,100.00
2022-12-03T05:17:08.317Z,100.00
2022-12-03T05:19:55.984Z,100.00
2022-12-03T05:22:23.495Z,100.00
2022-12-03T05:24:51.351Z,100.00
2022-12-03T05:27:23.673Z,100.00
2022-12-03T05:29:51.780Z,100.00
2022-12-03T05:32:21.759Z,100.00
2022-12-03T05:34:49.360Z,100.00
2022-12-03T05:37:17.009Z,100.00
2022-12-03T05:39:47.081Z,100.00
2022-12-03T05:42:31.924Z,100.00
2022-12-03T05:44:59.437Z,100.00
2022-12-03T05:47:27.006Z,100.00
2022-12-03T05:49:54.651Z,100.00
2022-12-03T05:52:26.449Z,100.00
2022-12-03T05:54:54.227Z,100.00
2022-12-03T05:57:21.980Z,100.00
2022-12-03T05:59:50.701Z,100.00
2022-12-03T06:02:18.325Z,100.00
2022-12-03T06:04:46.085Z,100.00
2022-12-03T06:07:16.046Z,100.00
2022-12-03T06:09:43.583Z,100.00
2022-12-03T06:12:14.535Z,100.00
2022-12-03T06:14:42.105Z,100.00
2022-12-03T06:17:09.937Z,100.00
2022-12-03T06:19:39.959Z,100.00
2022-12-03T06:22:07.583Z,100.00
2022-12-03T06:24:35.113Z,100.00
2022-12-03T06:27:04.913Z,100.00
2022-12-03T06:29:34.937Z,100.00
2022-12-03T06:32:03.634Z,100.00
2022-12-03T06:34:33.569Z,100.00
2022-12-03T06:37:01.392Z,100.00
2022-12-03T06:39:31.480Z,100.00
2022-12-03T06:41:58.974Z,100.00
2022-12-03T06:44:26.511Z,100.00
2022-12-03T06:46:56.616Z,100.00
2022-12-03T06:49:24.355Z,100.00
2022-12-03T06:51:51.881Z,100.00
2022-12-03T06:54:21.787Z,100.00
2022-12-03T06:56:51.843Z,100.00
2022-12-03T06:59:19.385Z,100.00
2022-12-03T07:01:46.999Z,100.00
2022-12-03T07:04:17.074Z,100.00
2022-12-03T07:06:44.807Z,100.00
2022-12-03T07:09:12.326Z,100.00
2022-12-03T07:11:42.653Z,100.00
2022-12-03T07:14:12.077Z,100.00
2022-12-03T07:16:43.238Z,100.00
2022-12-03T07:19:11.199Z,99.96
2022-12-03T07:21:39.136Z,99.97
2022-12-03T07:24:07.312Z,100.00
2022-12-03T07:26:34.881Z,99.94
2022-12-03T07:29:02.507Z,99.98
2022-12-03T07:31:30.243Z,99.84
2022-12-03T07:33:57.835Z,99.65
2022-12-03T07:36:34.258Z,99.61
2022-12-03T07:39:01.941Z,99.54
2022-12-03T07:41:29.508Z,99.48
2022-12-03T07:43:57.119Z,99.45
2022-12-03T07:46:24.702Z,99.36
2022-12-03T07:48:52.546Z,99.14
2022-12-03T07:51:20.288Z,99.05
2022-12-03T07:53:48.225Z,99.02
2022-12-03T07:56:15.916Z,98.91
2022-12-03T07:58:43.419Z,98.79
2022-12-03T08:01:11.314Z,98.77
2022-12-03T08:03:39.508Z,98.38
2022-12-03T08:06:08.570Z,98.40
2022-12-03T08:08:37.446Z,98.07
2022-12-03T08:11:09.623Z,97.92
2022-12-03T08:13:39.419Z,97.51
2022-12-03T08:16:17.760Z,97.55
2022-12-03T08:18:47.039Z,97.35
2022-12-03T08:21:17.883Z,96.99
2022-12-03T08:23:46.118Z,96.81
2022-12-03T08:26:27.547Z,96.10
2022-12-03T08:28:55.539Z,95.90
2022-12-03T08:31:33.136Z,95.65
2022-12-03T08:34:15.010Z,95.42
2022-12-03T08:36:42.558Z,95.09
2022-12-03T08:39:34.598Z,95.23
2022-12-03T08:42:37.994Z,94.97
2022-12-03T08:45:23.625Z,94.65
2022-12-03T08:47:51.197Z,94.58
2022-12-03T08:50:30.923Z,94.96
2022-12-03T08:53:24.492Z,94.87
2022-12-03T08:55:59.984Z,94.86
2022-12-03T08:58:32.444Z,94.57
2022-12-03T09:01:20.563Z,93.92
2022-12-03T09:03:55.823Z,93.00
2022-12-03T09:06:26.283Z,91.96
2022-12-03T09:08:56.377Z,91.40
2022-12-03T09:11:23.982Z,91.09
2022-12-03T09:13:56.961Z,91.51
2022-12-03T09:16:24.610Z,90.32
2022-12-03T09:18:54.559Z,91.55
2022-12-03T09:21:24.322Z,90.66
2022-12-03T09:23:51.890Z,90.22
2022-12-03T09:26:19.473Z,89.48
2022-12-03T09:28:48.307Z,88.51
2022-12-03T09:31:19.083Z,88.06
2022-12-03T09:33:46.683Z,87.35
2022-12-03T09:36:14.243Z,88.49
2022-12-03T09:38:46.248Z,88.45
2022-12-03T09:41:15.673Z,88.23
2022-12-03T09:44:03.507Z,87.72
2022-12-03T09:46:34.894Z,87.46
2022-12-03T09:49:03.568Z,88.17
2022-12-03T09:51:36.956Z,87.80
2022-12-03T09:54:11.007Z,86.76
2022-12-03T09:56:39.155Z,86.31
2022-12-03T09:59:14.752Z,85.13
2022-12-03T10:01:42.499Z,85.11
2022-12-03T10:04:11.088Z,84.68
2022-12-03T10:06:45.870Z,83.52
2022-12-03T10:09:17.654Z,83.22
2022-12-03T10:11:47.829Z,80.56
2022-12-03T10:14:20.789Z,79.52
2022-12-03T10:16:51.001Z,77.32
2022-12-03T10:19:24.490Z,77.25
2022-12-03T10:21:52.167Z,77.43
2022-12-03T10:24:32.431Z,81.00
2022-12-03T10:27:23.539Z,80.81
2022-12-03T10:30:01.541Z,80.46
2022-12-03T10:32:47.724Z,80.02
2022-12-03T10:35:20.615Z,78.93
2022-12-03T10:38:08.604Z,78.53
2022-12-03T10:40:40.500Z,77.33
2022-12-03T10:43:22.986Z,76.71
2022-12-03T10:46:02.075Z,76.90
2022-12-03T10:48:31.638Z,76.70
2022-12-03T10:51:21.338Z,76.16
2022-12-03T10:53:50.616Z,75.82
2022-12-03T10:56:27.802Z,76.23
2022-12-03T10:58:56.367Z,75.72
2022-12-03T11:01:26.772Z,75.50
2022-12-03T11:06:24.661Z,77.60
2022-12-03T11:08:58.364Z,76.68
2022-12-03T11:11:32.046Z,76.02
2022-12-03T11:14:04.703Z,74.97
2022-12-03T11:16:52.503Z,74.63
2022-12-03T11:19:44.862Z,74.76
2022-12-03T11:22:13.516Z,74.47
2022-12-03T11:24:41.812Z,74.88
2022-12-03T11:27:18.806Z,75.16
2022-12-03T11:30:00.986Z,74.41
2022-12-03T11:32:43.754Z,74.34
2022-12-03T11:35:37.381Z,74.95
2022-12-03T11:38:40.909Z,74.21
2022-12-03T11:41:28.957Z,74.82
2022-12-03T11:43:56.632Z,72.95
2022-12-03T11:46:41.678Z,71.76
2022-12-03T11:49:25.534Z,72.19
2022-12-03T11:51:53.230Z,72.31
2022-12-03T11:54:25.485Z,72.74
2022-12-03T11:56:56.400Z,72.49
2022-12-03T11:59:24.114Z,72.04
2022-12-03T12:01:51.670Z,72.44
2022-12-03T12:04:32.196Z,71.80
2022-12-03T12:07:00.514Z,70.68
2022-12-03T12:09:57.391Z,71.02
2022-12-03T12:12:32.159Z,71.07
2022-12-03T12:15:00.312Z,70.26
2022-12-03T12:17:34.019Z,71.53
2022-12-03T12:20:35.630Z,72.21
2022-12-03T12:23:23.679Z,70.91
2022-12-03T12:25:54.333Z,71.00
2022-12-03T12:28:22.164Z,70.97
2022-12-03T12:30:49.704Z,72.47
2022-12-03T12:33:26.788Z,73.05
2022-12-03T12:35:54.918Z,73.31
2022-12-03T12:38:24.320Z,73.67
2022-12-03T12:40:52.216Z,73.91
2022-12-03T12:43:24.901Z,74.14
2022-12-03T12:45:57.632Z,74.90
2022-12-03T12:48:28.302Z,75.12
2022-12-03T12:51:02.890Z,75.93
2022-12-03T12:53:33.995Z,76.48
2022-12-03T12:56:27.992Z,77.30
2022-12-03T12:59:10.622Z,77.33
2022-12-03T13:01:38.558Z,77.67
2022-12-03T13:04:16.154Z,78.04
2022-12-03T13:06:44.658Z,78.35
2022-12-03T13:09:25.864Z,78.36
2022-12-03T13:12:03.974Z,78.71
2022-12-03T13:14:36.161Z,78.90
2022-12-03T13:17:18.480Z,78.04
2022-12-03T13:19:48.629Z,78.39
2022-12-03T13:22:22.398Z,78.71
2022-12-03T13:24:56.084Z,78.72
2022-12-03T13:27:29.500Z,78.75
2022-12-03T13:30:00.227Z,78.75
2022-12-03T13:32:34.471Z,79.25
2022-12-03T13:35:30.521Z,79.43
2022-12-03T13:38:00.457Z,79.37
2022-12-03T13:40:35.039Z,79.42
2022-12-03T13:43:11.405Z,79.67
2022-12-03T13:45:50.387Z,79.69
2022-12-03T13:48:24.990Z,79.77
2022-12-03T13:50:53.612Z,79.69
2022-12-03T13:53:22.998Z,79.82
2022-12-03T13:55:54.694Z,80.27
2022-12-03T13:58:22.259Z,79.86
2022-12-03T14:00:49.940Z,80.39
2022-12-03T14:03:17.605Z,80.03
2022-12-03T14:05:47.756Z,80.34
2022-12-03T14:08:15.363Z,80.36
2022-12-03T14:10:42.925Z,80.17
2022-12-03T14:13:11.238Z,80.48
2022-12-03T14:15:38.835Z,80.93
2022-12-03T14:18:06.413Z,81.02
2022-12-03T14:20:36.572Z,81.12
2022-12-03T14:23:06.041Z,80.88
2022-12-03T14:25:33.649Z,81.17
2022-12-03T14:28:01.422Z,81.27
2022-12-03T14:30:31.443Z,81.40
2022-12-03T14:32:59.022Z,81.24
2022-12-03T14:35:26.631Z,81.84
2022-12-03T14:37:54.314Z,81.66
2022-12-03T14:40:22.417Z,81.70
2022-12-03T14:42:52.641Z,82.17
2022-12-03T14:45:23.462Z,82.30
2022-12-03T14:47:51.017Z,82.52
2022-12-03T14:50:18.658Z,82.63
2022-12-03T14:52:46.251Z,83.25
2022-12-03T14:55:13.955Z,83.27
2022-12-03T14:57:41.601Z,83.74
2022-12-03T15:00:09.934Z,83.49
2022-12-03T15:02:37.609Z,84.20
2022-12-03T15:05:05.533Z,84.36
2022-12-03T15:07:33.402Z,83.68
2022-12-03T15:10:01.313Z,83.92
2022-12-03T15:12:28.865Z,83.64
2022-12-03T15:14:57.417Z,83.57
2022-12-03T15:17:31.393Z,83.51
2022-12-03T15:19:59.661Z,83.65
2022-12-03T15:22:27.253Z,84.10
2022-12-03T15:24:54.756Z,84.42
2022-12-03T15:27:22.369Z,84.72
2022-12-03T15:29:49.916Z,84.97
2022-12-03T15:32:17.473Z,85.10
2022-12-03T15:34:45.117Z,85.75
2022-12-03T15:37:12.650Z,85.92
2022-12-03T15:39:48.492Z,86.56
2022-12-03T15:42:16.429Z,86.32
2022-12-03T15:44:44.117Z,86.69
2022-12-03T15:47:11.715Z,86.48
2022-12-03T15:49:39.249Z,87.51
2022-12-03T15:52:09.175Z,88.01
2022-12-03T15:54:36.752Z,88.08
2022-12-03T15:57:04.317Z,87.73
2022-12-03T15:59:31.896Z,88.65
2022-12-03T16:01:59.490Z,88.93
2022-12-03T16:04:27.091Z,88.33
2022-12-03T16:06:54.709Z,88.23
2022-12-03T16:09:27.104Z,88.60
2022-12-03T16:11:57.685Z,89.19
2022-12-03T16:14:25.237Z,89.44
2022-12-03T16:16:56.343Z,88.50
2022-12-03T16:19:23.918Z,89.60
2022-12-03T16:21:51.468Z,89.76
2022-12-03T16:24:19.006Z,89.81
2022-12-03T16:26:46.517Z,90.07
2022-12-03T16:29:14.924Z,89.90
2022-12-03T16:31:42.511Z,90.47
2022-12-03T16:34:15.499Z,90.59
2022-12-03T16:36:43.101Z,90.10
2022-12-03T16:39:12.674Z,90.96
2022-12-03T16:41:40.922Z,90.58
2022-12-03T16:44:19.895Z,91.14
2022-12-03T16:46:48.221Z,91.35
2022-12-03T16:49:15.831Z,90.82
2022-12-03T16:51:43.412Z,91.21
2022-12-03T16:54:11.786Z,91.63
2022-12-03T16:56:39.346Z,91.41
2022-12-03T16:59:06.892Z,91.98
2022-12-03T17:01:34.394Z,91.84
2022-12-03T17:04:02.016Z,91.24
2022-12-03T17:06:29.756Z,91.86
2022-12-03T17:08:57.766Z,92.17
2022-12-03T17:11:25.273Z,92.47
2022-12-03T17:13:52.884Z,91.89
2022-12-03T17:16:22.896Z,92.30
2022-12-03T17:18:50.511Z,92.45
2022-12-03T17:21:18.067Z,92.90
2022-12-03T17:23:48.815Z,92.66
2022-12-03T17:26:16.425Z,92.68
2022-12-03T17:28:44.041Z,92.91
2022-12-03T17:31:12.839Z,93.23
2022-12-03T17:33:40.726Z,93.31
2022-12-03T17:36:13.630Z,93.36
2022-12-03T17:38:41.338Z,93.92
2022-12-03T17:41:09.054Z,93.16
2022-12-03T17:43:36.607Z,93.57
2022-12-03T17:46:05.132Z,92.93
2022-12-03T17:48:32.789Z,93.35
2022-12-03T17:51:03.194Z,93.41
2022-12-03T17:53:30.844Z,93.72
2022-12-03T17:55:58.403Z,93.85
2022-12-03T17:58:26.711Z,94.25
2022-12-03T18:00:58.776Z,94.07
2022-12-03T18:03:29.935Z,94.07
2022-12-03T18:05:57.652Z,94.33
2022-12-03T18:08:25.209Z,94.12
2022-12-03T18:10:55.323Z,94.53
2022-12-03T18:13:25.510Z,94.51
2022-12-03T18:15:55.788Z,94.77
2022-12-03T18:18:24.651Z,95.03
2022-12-03T18:20:54.245Z,95.10
2022-12-03T18:23:21.861Z,95.49
2022-12-03T18:25:49.496Z,95.24
2022-12-03T18:28:19.254Z,95.27
2022-12-03T18:30:52.431Z,95.29
2022-12-03T18:33:21.320Z,95.74
2022-12-03T18:35:48.995Z,95.91
2022-12-03T18:38:18.523Z,95.50
2022-12-03T18:40:46.982Z,95.79
2022-12-03T18:43:16.282Z,95.72
2022-12-03T18:45:44.403Z,95.98
2022-12-03T18:48:18.174Z,96.37
2022-12-03T18:50:47.078Z,96.47
2022-12-03T18:53:17.028Z,96.53
2022-12-03T18:55:47.032Z,96.98
2022-12-03T18:58:14.629Z,97.20
2022-12-03T19:00:44.837Z,97.42
2022-12-03T19:03:12.519Z,96.94
2022-12-03T19:05:40.165Z,97.20
2022-12-03T19:08:14.605Z,97.12
2022-12-03T19:10:44.361Z,97.23
2022-12-03T19:13:14.557Z,97.54
2022-12-03T19:15:42.137Z,97.22
2022-12-03T19:18:12.326Z,97.17
2022-12-03T19:20:41.886Z,97.70
2022-12-03T19:23:10.341Z,97.72
2022-12-03T19:25:37.896Z,97.46
2022-12-03T19:28:05.555Z,97.12
2022-12-03T19:30:33.173Z,97.49
2022-12-03T19:33:02.623Z,97.52
2022-12-03T19:35:31.325Z,97.55
2022-12-03T19:38:01.328Z,96.88
2022-12-03T19:40:32.120Z,97.19
2022-12-03T19:42:59.699Z,97.50
2022-12-03T19:45:27.285Z,97.24
2022-12-03T19:47:55.458Z,97.71
2022-12-03T19:50:23.785Z,97.94
2022-12-03T19:52:54.156Z,97.95
2022-12-03T19:55:21.795Z,98.20
2022-12-03T19:57:49.445Z,97.84
2022-12-03T20:00:17.300Z,98.12
2022-12-03T20:02:44.883Z,97.87
2022-12-03T20:05:12.489Z,97.57
2022-12-03T20:07:40.030Z,97.76
2022-12-03T20:10:08.163Z,97.46
2022-12-03T20:12:35.815Z,97.77
2022-12-03T20:15:03.330Z,97.52
2022-12-03T20:17:35.813Z,97.53
2022-12-03T20:20:03.403Z,97.60
2022-12-03T20:22:30.958Z,97.23
2022-12-03T20:24:58.484Z,97.11
2022-12-03T20:27:26.049Z,96.68
2022-12-03T20:29:55.970Z,96.34
2022-12-03T20:32:23.870Z,96.29
2022-12-03T20:34:53.796Z,96.29
2022-12-03T20:37:21.448Z,96.24
2022-12-03T20:39:52.177Z,96.22
2022-12-03T20:42:20.039Z,96.23
2022-12-03T20:44:47.657Z,96.23
2022-12-03T20:47:16.008Z,96.32
2022-12-03T20:49:43.662Z,96.34
2022-12-03T20:52:13.054Z,96.50
2022-12-03T20:54:40.647Z,96.45
2022-12-03T20:57:08.677Z,96.34
2022-12-03T20:59:38.435Z,96.47
2022-12-03T21:02:06.247Z,96.57
2022-12-03T21:04:33.904Z,96.71
2022-12-03T21:07:01.445Z,96.55
2022-12-03T21:09:29.082Z,96.54
2022-12-03T21:11:59.241Z,96.76
2022-12-03T21:14:26.774Z,96.68
2022-12-03T21:17:13.891Z,96.54
2022-12-03T21:19:43.948Z,96.52
2022-12-03T21:22:11.516Z,96.54
2022-12-03T21:24:39.106Z,96.46
2022-12-03T21:27:08.991Z,96.63
2022-12-03T21:29:36.724Z,96.37
2022-12-03T21:32:04.482Z,96.46
2022-12-03T21:34:36.173Z,96.50
2022-12-03T21:37:04.132Z,96.61
2022-12-03T21:39:31.747Z,96.56
2022-12-03T21:42:35.284Z,96.54
2022-12-03T21:44:46.778Z,96.64
2022-12-03T21:47:14.720Z,96.49
2022-12-03T21:49:44.918Z,96.84
2022-12-03T21:52:14.668Z,96.75
2022-12-03T21:54:44.709Z,96.68
2022-12-03T21:57:14.356Z,96.56
2022-12-03T21:59:41.925Z,96.71
2022-12-03T22:02:14.120Z,96.69
2022-12-03T22:04:41.772Z,96.55
2022-12-03T22:07:10.465Z,96.39
2022-12-03T22:09:40.482Z,96.19
2022-12-03T22:12:08.163Z,95.96
2022-12-03T22:14:37.816Z,95.99
2022-12-03T22:17:05.552Z,96.18
2022-12-03T22:19:33.407Z,96.20
2022-12-03T22:22:01.988Z,96.38
2022-12-03T22:24:29.623Z,96.44
2022-12-03T22:26:59.546Z,96.58
2022-12-03T22:29:27.074Z,96.71
2022-12-03T22:31:57.004Z,96.96
2022-12-03T22:34:24.611Z,97.19
2022-12-03T22:36:52.131Z,97.53
2022-12-03T22:39:19.769Z,97.61
2022-12-03T22:41:47.324Z,97.62
2022-12-03T22:44:15.186Z,97.55
2022-12-03T22:46:46.542Z,97.41
2022-12-03T22:49:14.744Z,97.66
2022-12-03T22:51:45.553Z,97.31
2022-12-03T22:54:18.323Z,97.28
2022-12-03T22:56:49.933Z,97.21
2022-12-03T22:59:17.537Z,97.16
2022-12-03T23:01:45.093Z,97.10
2022-12-03T23:04:13.070Z,96.82
2022-12-03T23:06:41.257Z,96.96
2022-12-03T23:09:08.967Z,96.78
2022-12-03T23:11:37.401Z,96.61
2022-12-03T23:14:07.189Z,96.54
2022-12-03T23:16:35.034Z,96.67
2022-12-03T23:19:04.472Z,96.85
2022-12-03T23:21:37.560Z,97.28
2022-12-03T23:24:10.791Z,97.42
2022-12-03T23:26:39.455Z,97.38
2022-12-03T23:29:08.823Z,97.37
2022-12-03T23:31:37.229Z,97.61
2022-12-03T23:34:07.522Z,97.68
2022-12-03T23:36:35.571Z,97.85
2022-12-03T23:39:05.421Z,97.51
2022-12-03T23:41:33.121Z,97.46
2022-12-03T23:44:00.710Z,97.15
2022-12-03T23:46:28.668Z,97.12
2022-12-03T23:48:58.444Z,97.20
2022-12-03T23:51:27.978Z,97.29
2022-12-03T23:53:59.135Z,97.46
2022-12-03T23:56:30.629Z,97.82
2022-12-03T23:58:59.452Z,98.16
